createdAt,value
2023-09-06T00:00:17.735Z,13.11
2023-09-06T00:03:07.419Z,13.08
2023-09-06T00:05:37.416Z,13.06
2023-09-06T00:08:08.840Z,13.03
2023-09-06T00:10:39.077Z,13.01
2023-09-06T00:13:08.127Z,13.00
2023-09-06T00:15:37.126Z,13.00
2023-09-06T00:18:07.560Z,12.99
2023-09-06T00:20:37.148Z,12.97
2023-09-06T00:23:06.974Z,12.97
2023-09-06T00:25:35.542Z,12.95
2023-09-06T00:28:06.046Z,12.93
2023-09-06T00:30:35.031Z,12.92
2023-09-06T00:33:06.345Z,12.91
2023-09-06T00:35:35.291Z,12.90
2023-09-06T00:38:06.893Z,12.88
2023-09-06T00:40:36.900Z,12.86
2023-09-06T00:43:06.952Z,12.85
2023-09-06T00:45:40.164Z,12.84
2023-09-06T00:48:09.266Z,12.78
2023-09-06T00:50:37.995Z,12.81
2023-09-06T00:53:07.601Z,12.80
2023-09-06T00:55:37.805Z,12.79
2023-09-06T00:58:07.043Z,12.77
2023-09-06T01:00:36.263Z,12.75
2023-09-06T01:03:06.623Z,12.73
2023-09-06T01:05:40.824Z,12.72
2023-09-06T01:08:12.976Z,12.70
2023-09-06T01:10:41.574Z,12.68
2023-09-06T01:13:10.259Z,12.67
2023-09-06T01:15:44.158Z,12.65
2023-09-06T01:18:13.732Z,12.60
2023-09-06T01:20:45.843Z,12.62
2023-09-06T01:23:26.196Z,12.59
2023-09-06T01:25:55.081Z,12.55
2023-09-06T01:28:28.007Z,12.53
2023-09-06T01:30:56.749Z,12.51
2023-09-06T01:33:25.429Z,12.48
2023-09-06T01:35:53.681Z,12.46
2023-09-06T01:38:22.450Z,12.41
2023-09-06T01:40:51.043Z,12.37
2023-09-06T01:43:19.485Z,12.35
2023-09-06T01:45:52.264Z,12.35
2023-09-06T01:48:21.075Z,12.35
2023-09-06T01:50:49.896Z,12.36
2023-09-06T01:53:18.154Z,12.34
2023-09-06T01:55:46.389Z,12.33
2023-09-06T01:58:14.762Z,12.28
2023-09-06T02:00:44.580Z,12.31
2023-09-06T02:03:16.347Z,12.33
2023-09-06T02:05:45.211Z,12.32
2023-09-06T02:08:13.684Z,12.33
2023-09-06T02:10:43.105Z,12.33
2023-09-06T02:13:11.575Z,12.32
2023-09-06T02:15:40.125Z,12.34
2023-09-06T02:18:08.486Z,12.35
2023-09-06T02:20:36.730Z,12.35
2023-09-06T02:23:04.383Z,12.33
2023-09-06T02:25:34.036Z,12.33
2023-09-06T02:28:05.702Z,12.31
2023-09-06T02:30:38.059Z,12.29
2023-09-06T02:33:08.149Z,12.27
2023-09-06T02:35:36.444Z,12.26
2023-09-06T02:38:05.202Z,12.23
2023-09-06T02:40:33.796Z,12.20
2023-09-06T02:43:02.628Z,12.16
2023-09-06T02:45:37.282Z,12.13
2023-09-06T02:48:07.626Z,12.11
2023-09-06T02:50:36.666Z,12.08
2023-09-06T02:53:14.487Z,12.06
2023-09-06T02:55:43.113Z,12.03
2023-09-06T02:58:11.484Z,11.99
2023-09-06T03:00:40.801Z,11.96
2023-09-06T03:03:09.407Z,11.92
2023-09-06T03:05:41.845Z,11.88
2023-09-06T03:08:12.644Z,11.86
2023-09-06T03:10:41.701Z,11.84
2023-09-06T03:13:10.041Z,11.81
2023-09-06T03:15:43.931Z,11.79
2023-09-06T03:18:12.995Z,11.76
2023-09-06T03:21:09.272Z,11.73
2023-09-06T03:23:39.234Z,11.72
2023-09-06T03:26:10.543Z,11.70
2023-09-06T03:28:41.537Z,11.69
2023-09-06T03:31:13.705Z,11.69
2023-09-06T03:33:42.043Z,11.68
2023-09-06T03:36:10.057Z,11.66
2023-09-06T03:38:38.599Z,11.64
2023-09-06T03:41:07.810Z,11.62
2023-09-06T03:43:37.678Z,11.62
2023-09-06T03:46:10.322Z,11.61
2023-09-06T03:48:38.674Z,11.60
2023-09-06T03:51:07.919Z,11.59
2023-09-06T03:53:37.697Z,11.55
2023-09-06T03:56:06.157Z,11.53
2023-09-06T03:58:41.922Z,11.53
2023-09-06T04:01:11.535Z,11.51
2023-09-06T04:03:41.103Z,11.51
2023-09-06T04:06:11.417Z,11.52
2023-09-06T04:08:40.413Z,11.52
2023-09-06T04:11:10.798Z,11.53
2023-09-06T04:13:41.301Z,11.55
2023-09-06T04:16:10.019Z,11.56
2023-09-06T04:18:42.232Z,11.58
2023-09-06T04:21:10.775Z,11.60
2023-09-06T04:23:41.662Z,11.61
2023-09-06T04:26:11.249Z,11.62
2023-09-06T04:28:39.705Z,11.65
2023-09-06T04:31:10.033Z,11.66
2023-09-06T04:33:40.782Z,11.68
2023-09-06T04:36:23.367Z,11.69
2023-09-06T04:38:56.775Z,11.70
2023-09-06T04:41:26.240Z,11.73
2023-09-06T04:43:58.190Z,11.76
2023-09-06T04:46:26.853Z,11.80
2023-09-06T04:48:55.698Z,11.86
2023-09-06T04:51:24.290Z,11.94
2023-09-06T04:53:54.398Z,12.01
2023-09-06T04:56:27.537Z,12.08
2023-09-06T04:58:56.475Z,12.16
2023-09-06T05:01:24.911Z,12.21
2023-09-06T05:03:53.564Z,12.26
2023-09-06T05:06:22.747Z,12.32
2023-09-06T05:08:50.973Z,12.40
2023-09-06T05:11:22.318Z,12.49
2023-09-06T05:13:53.501Z,12.57
2023-09-06T05:16:22.896Z,12.66
2023-09-06T05:18:51.224Z,12.75
2023-09-06T05:21:22.535Z,12.83
2023-09-06T05:23:50.698Z,12.92
2023-09-06T05:26:19.042Z,13.00
2023-09-06T05:28:49.317Z,13.07
2023-09-06T05:31:19.351Z,13.15
2023-09-06T05:33:48.209Z,13.23
2023-09-06T05:36:17.883Z,13.31
2023-09-06T05:38:46.184Z,13.40
2023-09-06T05:41:16.114Z,13.48
2023-09-06T05:43:45.579Z,13.57
2023-09-06T05:48:48.036Z,13.71
2023-09-06T05:51:16.621Z,13.82
2023-09-06T05:53:45.291Z,13.92
2023-09-06T05:56:13.700Z,14.01
2023-09-06T05:58:43.057Z,14.12
2023-09-06T06:01:12.939Z,14.23
2023-09-06T06:03:41.573Z,14.33
2023-09-06T06:06:14.503Z,14.44
2023-09-06T06:08:42.924Z,14.55
2023-09-06T06:11:12.116Z,14.63
2023-09-06T06:13:40.363Z,14.77
2023-09-06T06:16:09.059Z,14.86
2023-09-06T06:18:37.331Z,14.97
2023-09-06T06:21:05.593Z,15.08
2023-09-06T06:23:34.066Z,15.22
2023-09-06T06:26:02.382Z,15.33
2023-09-06T06:28:30.956Z,15.49
2023-09-06T06:30:59.614Z,15.65
2023-09-06T06:33:27.828Z,15.84
2023-09-06T06:35:56.154Z,16.15
2023-09-06T06:38:24.530Z,16.65
2023-09-06T06:40:52.877Z,17.10
2023-09-06T06:43:21.457Z,17.32
2023-09-06T06:45:55.427Z,17.47
2023-09-06T06:48:23.195Z,17.63
2023-09-06T06:50:51.397Z,17.79
2023-09-06T06:53:19.708Z,17.94
2023-09-06T06:55:48.346Z,18.11
2023-09-06T06:58:16.668Z,18.33
2023-09-06T07:00:44.880Z,18.67
2023-09-06T07:03:13.223Z,19.13
2023-09-06T07:05:41.717Z,19.55
2023-09-06T07:08:10.834Z,19.94
2023-09-06T07:10:39.189Z,20.33
2023-09-06T07:13:07.475Z,20.59
2023-09-06T07:15:36.050Z,20.81
2023-09-06T07:18:07.467Z,21.03
2023-09-06T07:20:36.071Z,21.29
2023-09-06T07:23:04.716Z,21.57
2023-09-06T07:25:39.904Z,21.87
2023-09-06T07:28:08.116Z,22.16
2023-09-06T07:30:36.560Z,22.38
2023-09-06T07:33:05.863Z,22.70
2023-09-06T07:35:34.734Z,23.14
2023-09-06T07:38:03.045Z,23.55
2023-09-06T07:40:31.443Z,23.93
2023-09-06T07:42:59.690Z,24.10
2023-09-06T07:45:28.067Z,24.12
2023-09-06T07:47:56.464Z,24.10
2023-09-06T07:50:24.741Z,24.10
2023-09-06T07:52:53.033Z,24.11
2023-09-06T07:55:22.461Z,24.10
2023-09-06T07:57:50.582Z,24.03
2023-09-06T08:00:19.912Z,23.95
2023-09-06T08:02:48.079Z,23.88
2023-09-06T08:05:17.382Z,23.85
2023-09-06T08:07:45.653Z,23.80
2023-09-06T08:10:14.108Z,23.73
2023-09-06T08:12:42.233Z,23.70
2023-09-06T08:15:10.699Z,23.69
2023-09-06T08:17:39.168Z,23.71
2023-09-06T08:20:09.732Z,23.70
2023-09-06T08:22:44.790Z,23.69
2023-09-06T08:25:13.891Z,23.69
2023-09-06T08:27:42.870Z,23.69
2023-09-06T08:30:12.738Z,23.68
2023-09-06T08:32:42.357Z,23.65
2023-09-06T08:35:12.436Z,23.64
2023-09-06T08:37:40.885Z,23.56
2023-09-06T08:40:11.044Z,23.55
2023-09-06T08:42:39.918Z,23.56
2023-09-06T08:45:09.803Z,23.59
2023-09-06T08:47:39.901Z,23.64
2023-09-06T08:50:10.703Z,23.67
2023-09-06T08:52:41.539Z,23.66
2023-09-06T08:55:11.449Z,23.65
2023-09-06T08:57:40.227Z,23.66
2023-09-06T09:00:11.735Z,23.69
2023-09-06T09:02:40.904Z,23.74
2023-09-06T09:05:20.298Z,23.77
2023-09-06T09:07:54.268Z,23.80
2023-09-06T09:10:26.188Z,23.81
2023-09-06T09:12:56.850Z,23.86
2023-09-06T09:15:26.386Z,23.88
2023-09-06T09:18:01.053Z,23.91
2023-09-06T09:20:32.572Z,23.95
2023-09-06T09:23:02.010Z,23.99
2023-09-06T09:25:30.495Z,24.02
2023-09-06T09:27:59.986Z,24.02
2023-09-06T09:30:30.839Z,24.03
2023-09-06T09:33:00.549Z,24.05
2023-09-06T09:35:29.454Z,24.08
2023-09-06T09:37:58.017Z,24.09
2023-09-06T09:40:46.105Z,24.08
2023-09-06T09:43:24.234Z,24.11
2023-09-06T09:45:52.763Z,24.15
2023-09-06T09:48:23.613Z,24.18
2023-09-06T09:50:52.901Z,24.21
2023-09-06T09:53:23.744Z,24.22
2023-09-06T09:55:54.468Z,24.23
2023-09-06T09:58:23.308Z,24.23
2023-09-06T10:00:52.518Z,24.25
2023-09-06T10:03:23.700Z,24.31
2023-09-06T10:05:52.752Z,24.37
2023-09-06T10:08:21.466Z,24.43
2023-09-06T10:10:51.578Z,24.45
2023-09-06T10:13:19.949Z,24.48
2023-09-06T10:15:48.527Z,24.53
2023-09-06T10:18:17.091Z,24.55
2023-09-06T10:20:46.494Z,24.57
2023-09-06T10:23:15.500Z,24.59
2023-09-06T10:25:50.137Z,24.63
2023-09-06T10:28:21.145Z,24.66
2023-09-06T10:30:55.591Z,24.69
2023-09-06T10:33:57.426Z,24.73
2023-09-06T10:36:28.305Z,24.77
2023-09-06T10:39:15.923Z,24.79
2023-09-06T10:42:28.777Z,24.83
2023-09-06T10:45:14.146Z,24.85
2023-09-06T10:47:43.143Z,24.86
2023-09-06T10:50:20.672Z,24.90
2023-09-06T10:52:51.308Z,24.94
2023-09-06T10:55:22.146Z,24.99
2023-09-06T10:57:52.984Z,25.03
2023-09-06T11:00:22.513Z,25.08
2023-09-06T11:03:17.256Z,25.13
2023-09-06T11:05:51.414Z,25.15
2023-09-06T11:08:30.874Z,25.16
2023-09-06T11:11:08.077Z,25.19
2023-09-06T11:13:37.480Z,25.21
2023-09-06T11:16:10.238Z,25.25
2023-09-06T11:18:45.959Z,25.29
2023-09-06T11:21:18.251Z,25.33
2023-09-06T11:23:47.577Z,25.36
2023-09-06T11:26:16.133Z,25.38
2023-09-06T11:28:45.066Z,25.40
2023-09-06T11:31:25.742Z,25.39
2023-09-06T11:33:56.584Z,25.39
2023-09-06T11:36:29.812Z,25.40
2023-09-06T11:38:58.429Z,25.42
2023-09-06T11:41:26.982Z,25.44
2023-09-06T11:43:58.803Z,25.45
2023-09-06T11:46:27.841Z,25.50
2023-09-06T11:48:56.061Z,25.53
2023-09-06T11:51:25.850Z,25.55
2023-09-06T11:54:00.929Z,25.57
2023-09-06T11:56:32.061Z,25.58
2023-09-06T11:59:00.838Z,25.61
2023-09-06T12:01:29.930Z,25.65
2023-09-06T12:04:01.840Z,25.69
2023-09-06T12:06:31.102Z,25.70
2023-09-06T12:09:00.078Z,25.74
2023-09-06T12:11:28.609Z,25.77
2023-09-06T12:13:57.774Z,25.80
2023-09-06T12:16:25.995Z,25.83
2023-09-06T12:18:55.255Z,25.86
2023-09-06T12:21:23.643Z,25.90
2023-09-06T12:23:52.067Z,25.92
2023-09-06T12:26:21.274Z,25.91
2023-09-06T12:28:50.533Z,25.93
2023-09-06T12:31:19.162Z,25.94
2023-09-06T12:33:49.343Z,25.94
2023-09-06T12:36:19.023Z,25.96
2023-09-06T12:38:48.058Z,25.98
2023-09-06T12:41:16.302Z,26.02
2023-09-06T12:43:44.530Z,26.03
2023-09-06T12:46:12.850Z,26.04
2023-09-06T12:48:42.786Z,26.09
2023-09-06T12:51:11.144Z,26.12
2023-09-06T12:53:39.413Z,26.14
2023-09-06T12:56:12.062Z,26.16
2023-09-06T12:58:41.903Z,26.14
2023-09-06T13:01:11.131Z,26.14
2023-09-06T13:03:40.014Z,26.14
2023-09-06T13:06:09.030Z,26.14
2023-09-06T13:08:37.768Z,26.11
2023-09-06T13:11:07.031Z,26.13
2023-09-06T13:13:36.206Z,26.15
2023-09-06T13:16:06.656Z,26.16
2023-09-06T13:18:35.275Z,26.16
2023-09-06T13:21:05.995Z,26.17
2023-09-06T13:23:34.486Z,26.20
2023-09-06T13:26:03.092Z,26.22
2023-09-06T13:28:31.470Z,26.22
2023-09-06T13:31:00.070Z,26.22
2023-09-06T13:33:29.767Z,26.23
2023-09-06T13:35:58.445Z,26.26
2023-09-06T13:38:27.400Z,26.29
2023-09-06T13:40:55.607Z,26.31
2023-09-06T13:43:23.856Z,26.33
2023-09-06T13:45:52.220Z,26.34
2023-09-06T13:48:20.565Z,26.36
2023-09-06T13:50:48.910Z,26.38
2023-09-06T13:53:17.172Z,26.40
2023-09-06T13:55:45.267Z,26.41
2023-09-06T13:58:14.339Z,26.42
2023-09-06T14:00:43.226Z,26.40
2023-09-06T14:03:11.929Z,26.36
2023-09-06T14:05:40.419Z,26.33
2023-09-06T14:08:08.961Z,26.34
2023-09-06T14:10:37.449Z,26.33
2023-09-06T14:13:05.674Z,26.32
2023-09-06T14:15:35.462Z,26.32
2023-09-06T14:18:04.692Z,26.31
2023-09-06T14:20:35.128Z,26.29
2023-09-06T14:23:03.736Z,26.27
2023-09-06T14:25:32.359Z,26.27
2023-09-06T14:28:01.414Z,26.27
2023-09-06T14:30:30.293Z,26.27
2023-09-06T14:33:00.465Z,26.28
2023-09-06T14:35:29.080Z,26.29
2023-09-06T14:37:58.404Z,26.28
2023-09-06T14:40:26.871Z,26.27
2023-09-06T14:42:55.732Z,26.25
2023-09-06T14:45:26.744Z,26.25
2023-09-06T14:47:56.929Z,26.23
2023-09-06T14:50:25.353Z,26.21
2023-09-06T14:52:53.855Z,26.20
2023-09-06T14:55:22.461Z,26.18
2023-09-06T14:57:50.645Z,26.18
2023-09-06T15:00:19.505Z,26.17
2023-09-06T15:02:47.922Z,26.17
2023-09-06T15:05:16.888Z,26.17
2023-09-06T15:07:45.063Z,26.17
2023-09-06T15:10:14.816Z,26.14
2023-09-06T15:12:44.268Z,26.12
2023-09-06T15:15:15.007Z,26.09
2023-09-06T15:17:43.320Z,26.06
2023-09-06T15:20:13.339Z,26.03
2023-09-06T15:22:41.837Z,25.98
2023-09-06T15:25:11.469Z,25.93
2023-09-06T15:27:40.811Z,25.89
2023-09-06T15:30:10.086Z,25.86
2023-09-06T15:32:38.274Z,25.81
2023-09-06T15:35:08.763Z,25.77
2023-09-06T15:37:37.617Z,25.74
2023-09-06T15:40:09.096Z,25.72
2023-09-06T15:42:37.529Z,25.69
2023-09-06T15:45:08.922Z,25.65
2023-09-06T15:47:38.720Z,25.60
2023-09-06T15:50:10.955Z,25.54
2023-09-06T15:52:39.137Z,25.50
2023-09-06T15:55:09.616Z,25.45
2023-09-06T15:57:38.660Z,25.40
2023-09-06T16:00:24.443Z,25.35
2023-09-06T16:02:58.518Z,25.28
2023-09-06T16:05:27.208Z,25.20
2023-09-06T16:07:56.164Z,25.12
2023-09-06T16:10:25.169Z,25.05
2023-09-06T16:12:53.728Z,24.99
2023-09-06T16:15:23.263Z,24.90
2023-09-06T16:17:51.834Z,24.81
2023-09-06T16:20:20.247Z,24.73
2023-09-06T16:22:48.594Z,24.64
2023-09-06T16:25:17.110Z,24.54
2023-09-06T16:27:46.212Z,24.43
2023-09-06T16:30:15.170Z,24.32
2023-09-06T16:32:43.803Z,24.20
2023-09-06T16:35:12.080Z,24.08
2023-09-06T16:37:42.113Z,23.96
2023-09-06T16:40:11.059Z,23.84
2023-09-06T16:42:40.236Z,23.73
2023-09-06T16:45:10.740Z,23.60
2023-09-06T16:47:39.411Z,23.48
2023-09-06T16:50:09.755Z,23.36
2023-09-06T16:52:38.193Z,23.23
2023-09-06T16:55:10.468Z,23.12
2023-09-06T16:57:39.232Z,22.99
2023-09-06T17:00:10.203Z,22.85
2023-09-06T17:02:38.495Z,22.72
2023-09-06T17:05:08.925Z,22.60
2023-09-06T17:07:38.238Z,22.46
2023-09-06T17:10:08.273Z,22.33
2023-09-06T17:12:37.308Z,22.22
2023-09-06T17:15:14.078Z,22.11
2023-09-06T17:17:43.309Z,21.97
2023-09-06T17:20:13.079Z,21.85
2023-09-06T17:22:43.316Z,21.76
2023-09-06T17:25:11.523Z,21.65
2023-09-06T17:27:42.286Z,21.56
2023-09-06T17:30:18.869Z,21.48
2023-09-06T17:33:11.539Z,21.40
2023-09-06T17:35:40.628Z,21.29
2023-09-06T17:38:11.743Z,21.24
2023-09-06T17:40:41.732Z,21.15
2023-09-06T17:43:10.510Z,21.06
2023-09-06T17:45:39.456Z,20.97
2023-09-06T17:48:11.634Z,20.87
2023-09-06T17:50:41.899Z,20.78
2023-09-06T17:53:13.442Z,20.67
2023-09-06T17:55:42.528Z,20.57
2023-09-06T17:58:12.351Z,20.48
2023-09-06T18:00:42.612Z,20.39
2023-09-06T18:03:14.974Z,20.31
2023-09-06T18:05:45.565Z,20.24
2023-09-06T18:08:16.306Z,20.18
2023-09-06T18:10:45.125Z,20.12
2023-09-06T18:13:14.528Z,20.04
2023-09-06T18:15:43.020Z,19.98
2023-09-06T18:18:13.950Z,19.92
2023-09-06T18:20:45.245Z,19.84
2023-09-06T18:23:14.092Z,19.76
2023-09-06T18:25:42.519Z,19.66
2023-09-06T18:28:10.798Z,19.58
2023-09-06T18:30:44.332Z,19.49
2023-09-06T18:33:14.241Z,19.41
2023-09-06T18:35:45.799Z,19.32
2023-09-06T18:38:15.175Z,19.24
2023-09-06T18:40:43.540Z,19.18
2023-09-06T18:43:12.388Z,19.10
2023-09-06T18:45:41.265Z,19.04
2023-09-06T18:48:14.796Z,18.98
2023-09-06T18:50:43.338Z,18.91
2023-09-06T18:53:11.894Z,18.86
2023-09-06T18:55:43.389Z,18.83
2023-09-06T18:58:12.037Z,18.78
2023-09-06T19:00:41.538Z,18.74
2023-09-06T19:03:13.375Z,18.69
2023-09-06T19:05:43.212Z,18.63
2023-09-06T19:08:14.671Z,18.58
2023-09-06T19:10:43.435Z,18.52
2023-09-06T19:13:14.970Z,18.48
2023-09-06T19:15:47.731Z,18.43
2023-09-06T19:18:16.276Z,18.36
2023-09-06T19:20:44.921Z,18.31
2023-09-06T19:23:17.126Z,18.27
2023-09-06T19:25:51.992Z,18.23
2023-09-06T19:28:21.253Z,18.18
2023-09-06T19:30:54.894Z,18.13
2023-09-06T19:33:23.305Z,18.07
2023-09-06T19:35:51.752Z,18.03
2023-09-06T19:38:21.804Z,17.98
2023-09-06T19:40:51.131Z,17.94
2023-09-06T19:43:19.760Z,17.89
2023-09-06T19:45:53.665Z,17.84
2023-09-06T19:48:22.072Z,17.77
2023-09-06T19:50:50.559Z,17.70
2023-09-06T19:53:19.447Z,17.64
2023-09-06T19:55:48.731Z,17.59
2023-09-06T19:58:18.398Z,17.54
2023-09-06T20:00:46.763Z,17.50
2023-09-06T20:03:15.644Z,17.46
2023-09-06T20:05:44.436Z,17.40
2023-09-06T20:08:12.901Z,17.35
2023-09-06T20:10:47.190Z,17.31
2023-09-06T20:13:15.544Z,17.26
2023-09-06T20:15:44.699Z,17.23
2023-09-06T20:18:13.042Z,17.21
2023-09-06T20:20:41.756Z,17.18
2023-09-06T20:23:10.462Z,17.15
2023-09-06T20:25:38.927Z,17.12
2023-09-06T20:28:07.885Z,17.09
2023-09-06T20:30:39.656Z,17.07
2023-09-06T20:33:09.282Z,17.06
2023-09-06T20:35:43.372Z,17.02
2023-09-06T20:38:12.259Z,16.99
2023-09-06T20:40:40.694Z,16.94
2023-09-06T20:43:09.129Z,16.87
2023-09-06T20:45:37.551Z,16.82
2023-09-06T20:48:09.153Z,16.78
2023-09-06T20:50:37.470Z,16.75
2023-09-06T20:53:06.231Z,16.70
2023-09-06T20:55:34.714Z,16.68
2023-09-06T20:58:03.489Z,16.66
2023-09-06T21:00:31.856Z,16.64
2023-09-06T21:03:01.401Z,16.61
2023-09-06T21:05:30.838Z,16.60
2023-09-06T21:07:59.235Z,16.58
2023-09-06T21:10:28.488Z,16.53
2023-09-06T21:12:56.941Z,16.49
2023-09-06T21:15:25.298Z,16.45
2023-09-06T21:17:53.510Z,16.42
2023-09-06T21:20:23.133Z,16.39
2023-09-06T21:22:51.334Z,16.37
2023-09-06T21:25:19.521Z,16.35
2023-09-06T21:27:47.868Z,16.32
2023-09-06T21:30:16.069Z,16.27
2023-09-06T21:32:44.456Z,16.23
2023-09-06T21:35:12.698Z,16.19
2023-09-06T21:37:41.055Z,16.16
2023-09-06T21:40:10.459Z,16.12
2023-09-06T21:42:38.771Z,16.10
2023-09-06T21:45:09.755Z,16.07
2023-09-06T21:47:38.323Z,16.02
2023-09-06T21:50:09.132Z,15.98
2023-09-06T21:52:37.638Z,15.96
2023-09-06T21:55:07.752Z,15.93
2023-09-06T21:57:36.224Z,15.92
2023-09-06T22:00:10.880Z,15.89
2023-09-06T22:02:57.882Z,15.87
2023-09-06T22:05:44.634Z,15.86
2023-09-06T22:08:32.594Z,15.82
2023-09-06T22:11:19.627Z,15.79
2023-09-06T22:14:06.333Z,15.72
2023-09-06T22:16:35.609Z,15.70
2023-09-06T22:19:04.356Z,15.68
2023-09-06T22:21:32.626Z,15.66
2023-09-06T22:24:00.874Z,15.63
2023-09-06T22:26:29.292Z,15.60
2023-09-06T22:28:58.445Z,15.56
2023-09-06T22:31:29.061Z,15.53
2023-09-06T22:33:58.167Z,15.50
2023-09-06T22:36:26.462Z,15.47
2023-09-06T22:38:54.616Z,15.43
2023-09-06T22:41:23.186Z,15.40
2023-09-06T22:43:51.404Z,15.38
2023-09-06T22:46:20.040Z,15.36
2023-09-06T22:48:53.765Z,15.32
2023-09-06T22:51:23.139Z,15.27
2023-09-06T22:53:51.628Z,15.22
2023-09-06T22:56:19.819Z,15.19
2023-09-06T22:58:48.008Z,15.15
2023-09-06T23:01:16.429Z,15.10
2023-09-06T23:03:45.161Z,15.06
2023-09-06T23:06:16.110Z,15.03
2023-09-06T23:08:44.336Z,15.01
2023-09-06T23:11:12.706Z,15.00
2023-09-06T23:13:40.955Z,14.99
2023-09-06T23:16:10.377Z,14.97
2023-09-06T23:18:44.690Z,14.93
2023-09-06T23:21:13.382Z,14.90
2023-09-06T23:23:43.342Z,14.87
2023-09-06T23:26:14.033Z,14.85
2023-09-06T23:28:44.888Z,14.83
2023-09-06T23:31:17.165Z,14.82
2023-09-06T23:33:50.414Z,14.76
2023-09-06T23:36:19.563Z,14.62
2023-09-06T23:38:49.569Z,14.60
2023-09-06T23:41:18.568Z,14.58
2023-09-06T23:43:48.393Z,14.54
2023-09-06T23:46:18.286Z,14.52
2023-09-06T23:48:46.533Z,14.50
2023-09-06T23:51:13.866Z,14.48
2023-09-06T23:53:42.049Z,14.43
2023-09-06T23:56:11.373Z,14.39
2023-09-06T23:58:39.606Z,14.39
